createdAt,value
2017-07-30T00:00:23.895Z,3.37
2017-07-30T00:02:51.444Z,3.20
2017-07-30T00:05:19.015Z,3.13
2017-07-30T00:07:46.647Z,3.93
2017-07-30T00:10:14.152Z,3.63
2017-07-30T00:12:41.726Z,4.53
2017-07-30T00:15:10.118Z,3.80
2017-07-30T00:17:38.551Z,3.67
2017-07-30T00:20:06.105Z,4.37
2017-07-30T00:22:33.672Z,4.20
2017-07-30T00:25:01.238Z,4.10
2017-07-30T00:27:28.809Z,4.27
2017-07-30T00:29:56.367Z,3.73
2017-07-30T00:32:23.935Z,3.73
2017-07-30T00:34:51.482Z,3.90
2017-07-30T00:37:19.037Z,4.07
2017-07-30T00:39:46.597Z,4.00
2017-07-30T00:42:14.257Z,3.57
2017-07-30T00:44:41.833Z,4.10
2017-07-30T00:47:09.482Z,3.60
2017-07-30T00:49:37.046Z,3.60
2017-07-30T00:52:04.613Z,4.03
2017-07-30T00:54:32.190Z,3.73
2017-07-30T00:57:00.587Z,4.93
2017-07-30T00:59:28.166Z,4.40
2017-07-30T01:01:55.713Z,4.10
2017-07-30T01:04:23.277Z,3.97
2017-07-30T01:06:50.881Z,4.37
2017-07-30T01:09:19.194Z,4.43
2017-07-30T01:11:46.752Z,3.67
2017-07-30T01:14:14.314Z,4.17
2017-07-30T01:16:41.894Z,3.27
2017-07-30T01:19:09.454Z,3.73
2017-07-30T01:21:37.001Z,3.50
2017-07-30T01:24:04.550Z,3.70
2017-07-30T01:26:32.116Z,4.23
2017-07-30T01:28:59.670Z,3.60
2017-07-30T01:31:27.255Z,3.70
2017-07-30T01:33:54.904Z,3.50
2017-07-30T01:36:22.480Z,3.10
2017-07-30T01:38:50.046Z,3.73
2017-07-30T01:41:17.627Z,3.70
2017-07-30T01:43:45.205Z,3.50
2017-07-30T01:46:12.778Z,3.17
2017-07-30T01:48:40.328Z,3.60
2017-07-30T01:51:07.869Z,3.40
2017-07-30T01:53:35.428Z,4.47
2017-07-30T01:56:02.982Z,4.00
2017-07-30T01:58:30.541Z,4.20
2017-07-30T02:00:58.244Z,3.47
2017-07-30T02:03:25.808Z,4.20
2017-07-30T02:05:53.349Z,3.77
2017-07-30T02:08:21.068Z,3.60
2017-07-30T02:10:48.617Z,3.50
2017-07-30T02:13:16.954Z,3.93
2017-07-30T02:15:44.480Z,3.37
2017-07-30T02:18:12.032Z,3.63
2017-07-30T02:20:39.586Z,3.23
2017-07-30T02:23:07.172Z,3.20
2017-07-30T02:25:34.922Z,3.67
2017-07-30T02:28:02.486Z,4.27
2017-07-30T02:30:30.059Z,3.50
2017-07-30T02:32:57.639Z,3.47
2017-07-30T02:35:25.202Z,3.50
2017-07-30T02:37:52.783Z,3.83
2017-07-30T02:40:20.334Z,3.50
2017-07-30T02:42:47.919Z,3.90
2017-07-30T02:45:15.470Z,3.57
2017-07-30T02:47:43.022Z,3.33
2017-07-30T02:50:10.866Z,3.37
2017-07-30T02:52:38.414Z,4.10
2017-07-30T02:55:05.979Z,3.57
2017-07-30T02:57:33.558Z,3.50
2017-07-30T03:00:01.107Z,3.87
2017-07-30T03:02:28.666Z,3.67
2017-07-30T03:04:56.339Z,3.40
2017-07-30T03:07:23.894Z,3.30
2017-07-30T03:09:51.444Z,3.73
2017-07-30T03:12:19.016Z,3.73
2017-07-30T03:14:46.591Z,3.80
2017-07-30T03:17:14.147Z,3.80
2017-07-30T03:19:41.714Z,3.10
2017-07-30T03:22:09.282Z,3.80
2017-07-30T03:24:36.849Z,3.70
2017-07-30T03:27:04.419Z,3.60
2017-07-30T03:29:31.997Z,3.53
2017-07-30T03:31:59.557Z,3.70
2017-07-30T03:34:27.137Z,4.20
2017-07-30T03:36:54.703Z,3.43
2017-07-30T03:39:22.253Z,3.33
2017-07-30T03:41:49.827Z,3.60
2017-07-30T03:44:17.366Z,3.70
2017-07-30T03:46:44.954Z,3.50
2017-07-30T03:49:13.284Z,4.17
2017-07-30T03:51:40.846Z,3.30
2017-07-30T03:54:08.409Z,3.50
2017-07-30T03:56:35.964Z,3.50
2017-07-30T03:59:03.516Z,3.87
2017-07-30T04:01:31.086Z,4.20
2017-07-30T04:03:58.643Z,3.60
2017-07-30T04:06:26.190Z,3.80
2017-07-30T04:08:53.729Z,3.80
2017-07-30T04:11:22.086Z,3.37
2017-07-30T04:13:49.642Z,4.00
2017-07-30T04:16:17.329Z,3.90
2017-07-30T04:18:44.931Z,4.03
2017-07-30T04:21:12.638Z,4.20
2017-07-30T04:23:40.210Z,4.47
2017-07-30T04:26:07.865Z,4.47
2017-07-30T04:28:35.418Z,3.53
2017-07-30T04:31:02.967Z,3.50
2017-07-30T04:33:30.554Z,3.37
2017-07-30T04:35:58.150Z,4.00
2017-07-30T04:38:26.466Z,3.73
2017-07-30T04:40:54.041Z,4.30
2017-07-30T04:43:21.592Z,3.40
2017-07-30T04:45:49.157Z,3.93
2017-07-30T04:48:16.718Z,3.80
2017-07-30T04:50:44.292Z,4.17
2017-07-30T04:53:11.914Z,4.00
2017-07-30T04:55:39.465Z,3.10
2017-07-30T04:58:07.789Z,3.40
2017-07-30T05:00:35.345Z,3.53
2017-07-30T05:03:03.015Z,4.07
2017-07-30T05:05:30.570Z,4.00
2017-07-30T05:07:58.167Z,3.77
2017-07-30T05:10:25.742Z,3.53
2017-07-30T05:12:53.301Z,4.03
2017-07-30T05:15:20.852Z,3.57
2017-07-30T05:17:48.428Z,3.33
2017-07-30T05:20:15.990Z,3.90
2017-07-30T05:22:43.609Z,3.40
2017-07-30T05:25:11.273Z,3.97
2017-07-30T05:27:38.851Z,3.23
2017-07-30T05:30:06.406Z,4.07
2017-07-30T05:32:33.985Z,3.00
2017-07-30T05:35:01.558Z,3.97
2017-07-30T05:37:29.190Z,3.37
2017-07-30T05:39:56.745Z,3.00
2017-07-30T05:42:24.322Z,3.50
2017-07-30T05:44:51.910Z,3.60
2017-07-30T05:47:19.470Z,2.80
2017-07-30T05:49:47.014Z,3.07
2017-07-30T05:52:14.622Z,2.93
2017-07-30T05:54:42.960Z,3.13
2017-07-30T05:57:10.529Z,2.90
2017-07-30T05:59:38.123Z,2.80
2017-07-30T06:02:06.458Z,2.97
2017-07-30T06:04:34.049Z,3.07
2017-07-30T06:07:01.594Z,3.40
2017-07-30T06:09:29.169Z,2.50
2017-07-30T06:11:56.746Z,2.40
2017-07-30T06:14:25.074Z,2.50
2017-07-30T06:16:52.676Z,3.30
2017-07-30T06:19:20.315Z,2.50
2017-07-30T06:21:47.862Z,3.40
2017-07-30T06:24:15.410Z,3.10
2017-07-30T06:26:42.980Z,2.70
2017-07-30T06:29:10.557Z,2.20
2017-07-30T06:31:38.131Z,3.00
2017-07-30T06:34:05.692Z,2.57
2017-07-30T06:36:33.286Z,2.27
2017-07-30T06:39:00.832Z,2.47
2017-07-30T06:41:28.497Z,2.83
2017-07-30T06:43:56.086Z,2.87
2017-07-30T06:46:24.408Z,2.50
2017-07-30T06:48:52.139Z,2.80
2017-07-30T06:51:20.462Z,2.50
2017-07-30T06:53:48.023Z,2.73
2017-07-30T06:56:15.588Z,2.70
2017-07-30T06:58:43.169Z,2.97
2017-07-30T07:01:10.718Z,2.33
2017-07-30T07:03:38.285Z,3.80
2017-07-30T07:06:05.862Z,2.30
2017-07-30T07:08:33.422Z,2.00
2017-07-30T07:11:00.997Z,2.60
2017-07-30T07:13:28.562Z,2.63
2017-07-30T07:15:56.164Z,2.87
2017-07-30T07:18:23.733Z,3.30
2017-07-30T07:20:51.312Z,1.97
2017-07-30T07:23:18.883Z,2.60
2017-07-30T07:25:46.448Z,2.20
2017-07-30T07:28:13.969Z,2.27
2017-07-30T07:30:41.586Z,2.63
2017-07-30T07:33:09.141Z,2.10
2017-07-30T07:35:36.887Z,2.00
2017-07-30T07:38:04.455Z,2.17
2017-07-30T07:40:32.001Z,2.13
2017-07-30T07:42:59.557Z,2.30
2017-07-30T07:45:27.110Z,2.40
2017-07-30T07:47:54.770Z,2.00
2017-07-30T07:50:22.321Z,2.10
2017-07-30T07:52:49.886Z,2.03
2017-07-30T07:55:17.466Z,2.13
2017-07-30T07:57:45.042Z,1.97
2017-07-30T08:00:12.639Z,2.20
2017-07-30T08:02:40.193Z,2.30
2017-07-30T08:05:07.811Z,2.10
2017-07-30T08:07:35.357Z,2.30
2017-07-30T08:10:02.903Z,1.97
2017-07-30T08:12:31.237Z,1.80
2017-07-30T08:14:58.795Z,1.93
2017-07-30T08:17:26.444Z,2.10
2017-07-30T08:19:54.009Z,2.00
2017-07-30T08:22:21.615Z,1.90
2017-07-30T08:24:49.182Z,2.70
2017-07-30T08:27:16.791Z,1.90
2017-07-30T08:29:44.508Z,3.10
2017-07-30T08:32:12.061Z,2.53
2017-07-30T08:34:39.622Z,2.17
2017-07-30T08:37:07.219Z,2.57
2017-07-30T08:39:35.562Z,2.33
2017-07-30T08:42:03.114Z,2.90
2017-07-30T08:44:30.690Z,2.30
2017-07-30T08:46:58.248Z,2.27
2017-07-30T08:49:25.837Z,2.97
2017-07-30T08:51:54.199Z,2.30
2017-07-30T08:54:21.819Z,1.97
2017-07-30T08:56:49.416Z,1.80
2017-07-30T08:59:16.969Z,2.80
2017-07-30T09:01:44.535Z,1.93
2017-07-30T09:04:12.090Z,1.90
2017-07-30T09:06:39.686Z,2.03
2017-07-30T09:09:07.243Z,1.73
2017-07-30T09:11:34.798Z,1.70
2017-07-30T09:14:02.378Z,2.20
2017-07-30T09:16:29.917Z,1.70
2017-07-30T09:18:57.493Z,1.90
2017-07-30T09:21:25.051Z,2.20
2017-07-30T09:23:52.606Z,1.77
2017-07-30T09:26:20.187Z,1.80
2017-07-30T09:28:47.947Z,2.57
2017-07-30T09:31:15.513Z,2.40
2017-07-30T09:33:43.090Z,2.63
2017-07-30T09:36:11.635Z,2.00
2017-07-30T09:38:39.216Z,2.50
2017-07-30T09:41:06.776Z,2.23
2017-07-30T09:43:35.130Z,2.70
2017-07-30T09:46:02.678Z,2.07
2017-07-30T09:48:30.238Z,2.57
2017-07-30T09:50:57.807Z,2.37
2017-07-30T09:53:25.384Z,2.70
2017-07-30T09:55:53.130Z,2.53
2017-07-30T09:58:20.706Z,2.70
2017-07-30T10:00:49.128Z,3.80
2017-07-30T10:03:16.761Z,2.27
2017-07-30T10:05:45.074Z,2.37
2017-07-30T10:08:12.671Z,2.60
2017-07-30T10:10:40.227Z,2.57
2017-07-30T10:13:07.856Z,4.30
2017-07-30T10:15:35.437Z,2.73
2017-07-30T10:18:02.989Z,2.73
2017-07-30T10:20:30.658Z,3.13
2017-07-30T10:22:58.241Z,3.10
2017-07-30T10:25:25.838Z,2.60
2017-07-30T10:27:54.165Z,2.20
2017-07-30T10:30:21.721Z,2.83
2017-07-30T10:32:49.305Z,2.20
2017-07-30T10:35:16.877Z,2.73
2017-07-30T10:37:44.467Z,2.50
2017-07-30T10:40:12.813Z,2.80
2017-07-30T10:42:40.368Z,3.70
2017-07-30T10:45:07.938Z,2.87
2017-07-30T10:47:35.518Z,3.20
2017-07-30T10:50:03.097Z,2.37
2017-07-30T10:52:31.454Z,2.53
2017-07-30T10:54:59.039Z,2.33
2017-07-30T10:57:27.394Z,2.60
2017-07-30T10:59:54.958Z,2.60
2017-07-30T11:02:22.544Z,2.40
2017-07-30T11:04:50.881Z,2.20
2017-07-30T11:07:18.577Z,2.33
2017-07-30T11:09:46.140Z,2.80
2017-07-30T11:12:13.705Z,3.00
2017-07-30T11:14:41.290Z,2.60
2017-07-30T11:17:09.654Z,2.33
2017-07-30T11:19:37.258Z,2.40
2017-07-30T11:22:04.873Z,2.30
2017-07-30T11:24:32.466Z,2.87
2017-07-30T11:27:00.038Z,2.30
2017-07-30T11:29:27.614Z,2.70
2017-07-30T11:31:55.166Z,2.40
2017-07-30T11:34:22.868Z,2.30
2017-07-30T11:36:51.215Z,2.23
2017-07-30T11:39:18.802Z,2.40
2017-07-30T11:41:46.371Z,4.10
2017-07-30T11:44:13.982Z,2.67
2017-07-30T11:46:41.602Z,2.50
2017-07-30T11:49:10.031Z,2.60
2017-07-30T11:51:38.570Z,1.90
2017-07-30T11:54:06.155Z,1.90
2017-07-30T11:56:43.619Z,1.97
2017-07-30T11:59:11.315Z,2.10
2017-07-30T12:01:39.681Z,2.13
2017-07-30T12:04:08.009Z,2.10
2017-07-30T12:06:35.629Z,1.43
2017-07-30T12:09:03.967Z,1.90
2017-07-30T12:11:31.838Z,1.60
2017-07-30T12:13:59.416Z,1.30
2017-07-30T12:16:26.978Z,1.70
2017-07-30T12:18:54.652Z,1.63
2017-07-30T12:21:22.220Z,1.50
2017-07-30T12:23:49.782Z,1.77
2017-07-30T12:26:18.130Z,1.70
2017-07-30T12:28:45.695Z,1.63
2017-07-30T12:31:13.271Z,1.97
2017-07-30T12:33:40.867Z,2.70
2017-07-30T12:36:08.481Z,2.03
2017-07-30T12:38:36.061Z,1.80
2017-07-30T12:41:03.642Z,1.80
2017-07-30T12:43:31.186Z,1.90
2017-07-30T12:48:33.366Z,1.80
2017-07-30T12:51:00.931Z,1.50
2017-07-30T12:53:28.585Z,1.60
2017-07-30T12:55:56.145Z,1.40
2017-07-30T12:58:23.693Z,1.30
2017-07-30T13:00:52.013Z,1.40
2017-07-30T13:03:19.579Z,1.80
2017-07-30T13:05:47.153Z,2.10
2017-07-30T13:08:14.736Z,1.40
2017-07-30T13:10:42.301Z,1.40
2017-07-30T13:13:09.878Z,1.50
2017-07-30T13:15:37.488Z,1.87
2017-07-30T13:18:05.030Z,1.37
2017-07-30T13:20:32.650Z,1.60
2017-07-30T13:23:00.226Z,1.47
2017-07-30T13:25:27.810Z,1.60
2017-07-30T13:27:56.125Z,1.30
2017-07-30T13:30:23.709Z,1.60
2017-07-30T13:32:51.320Z,1.37
2017-07-30T13:35:19.645Z,1.40
2017-07-30T13:37:47.246Z,1.50
2017-07-30T13:40:14.793Z,1.27
2017-07-30T13:42:42.386Z,1.40
2017-07-30T13:45:10.715Z,1.40
2017-07-30T13:47:38.297Z,1.70
2017-07-30T13:50:05.841Z,2.07
2017-07-30T13:52:33.409Z,1.80
2017-07-30T13:55:00.972Z,1.57
2017-07-30T13:57:28.554Z,2.40
2017-07-30T13:59:56.150Z,1.50
2017-07-30T14:02:23.722Z,1.50
2017-07-30T14:04:51.302Z,1.63
2017-07-30T14:07:18.935Z,1.30
2017-07-30T14:09:46.551Z,1.60
2017-07-30T14:12:14.184Z,1.23
2017-07-30T14:14:41.750Z,1.50
2017-07-30T14:17:09.324Z,1.70
2017-07-30T14:19:37.099Z,1.70
2017-07-30T14:22:04.667Z,1.50
2017-07-30T14:24:32.246Z,1.50
2017-07-30T14:26:59.819Z,1.93
2017-07-30T14:29:27.390Z,1.50
2017-07-30T14:31:55.119Z,1.57
2017-07-30T14:34:22.973Z,1.43
2017-07-30T14:36:50.522Z,1.70
2017-07-30T14:39:18.098Z,1.83
2017-07-30T14:41:45.682Z,1.50
2017-07-30T14:44:13.303Z,1.30
2017-07-30T14:46:40.893Z,2.00
2017-07-30T14:49:08.461Z,1.70
2017-07-30T14:51:36.061Z,1.83
2017-07-30T14:54:03.635Z,1.70
2017-07-30T14:56:31.987Z,1.67
2017-07-30T14:58:59.667Z,1.80
2017-07-30T15:01:27.237Z,1.83
2017-07-30T15:03:55.582Z,2.13
2017-07-30T15:06:23.198Z,2.20
2017-07-30T15:08:51.546Z,1.73
2017-07-30T15:11:19.196Z,1.80
2017-07-30T15:13:46.770Z,2.27
2017-07-30T15:16:15.114Z,2.73
2017-07-30T15:18:42.706Z,1.90
2017-07-30T15:21:11.058Z,1.87
2017-07-30T15:23:38.724Z,1.80
2017-07-30T15:26:06.284Z,1.50
2017-07-30T15:28:33.870Z,1.90
2017-07-30T15:31:01.441Z,2.30
2017-07-30T15:33:29.798Z,1.87
2017-07-30T15:35:57.380Z,2.33
2017-07-30T15:38:25.694Z,2.40
2017-07-30T15:40:53.254Z,1.80
2017-07-30T15:43:20.822Z,2.97
2017-07-30T15:45:48.457Z,2.13
2017-07-30T15:48:16.817Z,1.70
2017-07-30T15:50:45.171Z,1.70
2017-07-30T15:53:12.762Z,1.70
2017-07-30T15:55:40.382Z,1.33
2017-07-30T15:58:07.981Z,1.40
2017-07-30T16:00:35.612Z,1.80
2017-07-30T16:03:03.196Z,1.87
2017-07-30T16:05:30.753Z,1.90
2017-07-30T16:07:58.322Z,1.50
2017-07-30T16:10:25.880Z,1.67
2017-07-30T16:12:53.518Z,1.80
2017-07-30T16:15:21.119Z,1.23
2017-07-30T16:17:48.734Z,1.70
2017-07-30T16:20:16.322Z,1.57
2017-07-30T16:22:43.917Z,1.60
2017-07-30T16:25:11.639Z,1.60
2017-07-30T16:27:39.207Z,2.70
2017-07-30T16:30:06.795Z,1.90
2017-07-30T16:32:34.379Z,2.37
2017-07-30T16:35:01.933Z,2.10
2017-07-30T16:37:29.504Z,1.40
2017-07-30T16:39:57.112Z,2.33
2017-07-30T16:42:24.676Z,1.53
2017-07-30T16:44:52.262Z,1.73
2017-07-30T16:47:20.865Z,1.77
2017-07-30T16:49:49.239Z,1.93
2017-07-30T16:52:17.567Z,2.47
2017-07-30T16:54:45.225Z,1.97
2017-07-30T16:57:12.818Z,2.60
2017-07-30T16:59:40.375Z,1.80
2017-07-30T17:02:07.940Z,1.87
2017-07-30T17:04:35.503Z,1.53
2017-07-30T17:07:03.084Z,2.50
2017-07-30T17:09:30.630Z,2.23
2017-07-30T17:11:58.221Z,1.57
2017-07-30T17:14:25.829Z,2.60
2017-07-30T17:16:53.427Z,1.07
2017-07-30T17:19:21.066Z,1.40
2017-07-30T17:21:48.633Z,1.33
2017-07-30T17:24:16.224Z,1.93
2017-07-30T17:26:43.802Z,1.70
2017-07-30T17:29:12.202Z,1.60
2017-07-30T17:31:40.611Z,1.67
2017-07-30T17:34:08.204Z,1.20
2017-07-30T17:36:35.801Z,1.60
2017-07-30T17:39:04.193Z,1.17
2017-07-30T17:41:32.598Z,1.60
2017-07-30T17:44:00.165Z,1.97
2017-07-30T17:46:27.818Z,1.23
2017-07-30T17:48:55.513Z,1.57
2017-07-30T17:51:23.199Z,1.40
2017-07-30T17:53:50.757Z,1.73
2017-07-30T17:56:18.340Z,1.83
2017-07-30T17:58:47.425Z,1.67
2017-07-30T18:01:15.191Z,1.50
2017-07-30T18:03:42.833Z,1.67
2017-07-30T18:06:10.421Z,1.77
2017-07-30T18:08:38.072Z,3.10
2017-07-30T18:11:18.185Z,1.80
2017-07-30T18:13:45.776Z,1.77
2017-07-30T18:16:13.366Z,1.47
2017-07-30T18:18:40.950Z,1.40
2017-07-30T18:21:09.426Z,1.40
2017-07-30T18:23:37.857Z,2.13
2017-07-30T18:26:05.483Z,1.60
2017-07-30T18:28:33.889Z,1.83
2017-07-30T18:31:01.728Z,1.70
2017-07-30T18:33:30.211Z,1.30
2017-07-30T18:35:57.778Z,1.40
2017-07-30T18:38:25.365Z,1.70
2017-07-30T18:40:52.931Z,1.40
2017-07-30T18:43:21.407Z,1.70
2017-07-30T18:45:48.990Z,1.40
2017-07-30T18:48:17.407Z,2.10
2017-07-30T18:50:44.978Z,1.60
2017-07-30T18:53:12.562Z,1.77
2017-07-30T18:55:40.169Z,1.90
2017-07-30T18:58:08.607Z,1.80
2017-07-30T19:00:37.710Z,1.80
2017-07-30T19:03:05.476Z,1.50
2017-07-30T19:05:33.236Z,1.70
2017-07-30T19:08:00.844Z,1.30
2017-07-30T19:10:28.445Z,2.10
2017-07-30T19:12:56.008Z,1.73
2017-07-30T19:15:23.635Z,1.53
2017-07-30T19:17:51.212Z,1.60
2017-07-30T19:20:18.814Z,1.50
2017-07-30T19:22:46.380Z,2.10
2017-07-30T19:25:14.055Z,1.87
2017-07-30T19:27:41.629Z,2.07
2017-07-30T19:30:09.367Z,1.87
2017-07-30T19:32:36.989Z,2.10
2017-07-30T19:35:04.618Z,2.10
2017-07-30T19:37:33.070Z,1.87
2017-07-30T19:40:00.681Z,2.43
2017-07-30T19:42:28.388Z,2.17
2017-07-30T19:44:56.108Z,2.10
2017-07-30T19:47:23.709Z,1.80
2017-07-30T19:49:51.335Z,1.70
2017-07-30T19:52:18.942Z,2.50
2017-07-30T19:54:46.537Z,2.10
2017-07-30T19:57:14.976Z,2.60
2017-07-30T19:59:42.616Z,2.00
2017-07-30T20:02:10.298Z,1.60
2017-07-30T20:04:44.211Z,1.73
2017-07-30T20:07:12.363Z,2.70
2017-07-30T20:09:39.954Z,1.90
2017-07-30T20:12:10.522Z,2.70
2017-07-30T20:14:38.244Z,1.70
2017-07-30T20:17:05.872Z,1.87
2017-07-30T20:19:33.574Z,2.30
2017-07-30T20:22:01.245Z,2.10
2017-07-30T20:24:28.907Z,2.17
2017-07-30T20:26:56.689Z,1.50
2017-07-30T20:29:24.331Z,2.20
2017-07-30T20:31:51.971Z,1.90
2017-07-30T20:34:19.646Z,2.10
2017-07-30T20:36:47.357Z,1.97
2017-07-30T20:39:15.764Z,1.40
2017-07-30T20:41:44.344Z,1.77
2017-07-30T20:44:12.163Z,2.13
2017-07-30T20:46:39.797Z,1.97
2017-07-30T20:49:07.521Z,1.80
2017-07-30T20:51:35.456Z,2.00
2017-07-30T20:54:03.065Z,2.50
2017-07-30T20:56:30.817Z,1.97
2017-07-30T20:58:58.514Z,2.07
2017-07-30T21:01:26.133Z,2.40
2017-07-30T21:03:53.756Z,2.93
2017-07-30T21:06:21.344Z,2.40
2017-07-30T21:08:49.008Z,3.03
2017-07-30T21:11:16.586Z,2.20
2017-07-30T21:13:44.242Z,2.80
2017-07-30T21:16:11.830Z,3.00
2017-07-30T21:18:39.467Z,2.27
2017-07-30T21:21:07.094Z,2.10
2017-07-30T21:23:34.752Z,2.27
2017-07-30T21:28:37.191Z,2.57
2017-07-30T21:31:31.370Z,2.70
2017-07-30T21:33:58.986Z,3.53
2017-07-30T21:36:26.562Z,3.70
2017-07-30T21:38:54.175Z,3.00
2017-07-30T21:41:21.779Z,3.07
2017-07-30T21:43:50.151Z,2.87
2017-07-30T21:46:18.521Z,4.30
2017-07-30T21:48:46.154Z,2.77
2017-07-30T21:51:13.776Z,2.53
2017-07-30T21:53:41.375Z,2.70
2017-07-30T21:56:09.018Z,3.27
2017-07-30T21:58:36.626Z,2.80
2017-07-30T22:01:04.239Z,2.77
2017-07-30T22:03:31.830Z,3.50
2017-07-30T22:05:59.449Z,2.60
2017-07-30T22:08:27.821Z,2.97
2017-07-30T22:10:55.446Z,2.83
2017-07-30T22:13:23.005Z,2.80
2017-07-30T22:15:50.746Z,3.43
2017-07-30T22:18:18.310Z,3.33
2017-07-30T22:20:45.971Z,4.87
2017-07-30T22:23:13.605Z,5.30
2017-07-30T22:25:41.982Z,4.47
2017-07-30T22:28:10.358Z,4.80
2017-07-30T22:30:37.943Z,4.20
2017-07-30T22:33:05.693Z,4.30
2017-07-30T22:35:34.021Z,3.70
2017-07-30T22:38:01.610Z,3.53
2017-07-30T22:40:29.232Z,3.70
2017-07-30T22:42:56.801Z,3.93
2017-07-30T22:45:24.765Z,3.83
2017-07-30T22:47:52.387Z,3.20
2017-07-30T22:50:20.724Z,3.60
2017-07-30T22:52:48.313Z,3.60
2017-07-30T22:55:15.894Z,4.00
2017-07-30T22:57:43.496Z,3.63
2017-07-30T23:00:11.079Z,3.70
2017-07-30T23:02:38.647Z,5.50
2017-07-30T23:05:06.235Z,4.40
2017-07-30T23:07:34.565Z,4.27
2017-07-30T23:10:02.186Z,4.67
2017-07-30T23:12:29.766Z,4.27
2017-07-30T23:14:57.319Z,3.80
2017-07-30T23:17:24.927Z,3.70
2017-07-30T23:19:52.538Z,4.30
2017-07-30T23:22:20.106Z,4.00
2017-07-30T23:24:47.695Z,5.10
2017-07-30T23:27:15.252Z,3.50
2017-07-30T23:29:42.843Z,3.77
2017-07-30T23:32:10.413Z,4.03
2017-07-30T23:34:37.991Z,4.10
2017-07-30T23:37:06.338Z,3.50
2017-07-30T23:39:33.912Z,3.00
2017-07-30T23:42:01.480Z,3.93
2017-07-30T23:44:29.030Z,3.50
2017-07-30T23:46:56.645Z,3.57
2017-07-30T23:49:24.213Z,3.43
2017-07-30T23:51:51.786Z,3.50
2017-07-30T23:54:19.351Z,3.40
2017-07-30T23:56:46.956Z,3.73
2017-07-30T23:59:14.616Z,3.23
